Time;durP1;ratioP1;P1;durP2;ratioP2;P2;SDS_P1;SDS_P2;PMS_P1;PMS_P2;Temp;Humidity;BMP_temperature;BMP_pressure;BME280_temperature;BME280_humidity;BME280_pressure;Samples;Min_cycle;Max_cycle;Signal;HPM_P1;HPM_P2
2023/01/17 01:46:09;;;;;;;34.60;19.00;;;;;;;2.83;100.00;97547.69;216991;1299;103723;-87
2023/01/17 01:52:13;;;;;;;41.90;21.30;;;;;;;2.84;100.00;97534.27;216292;1299;138567;-87
2023/01/17 01:58:14;;;;;;;34.60;19.00;;;;;;;2.83;100.00;97528.14;216703;1299;103999;-89
2023/01/17 02:04:13;;;;;;;;;;;;;;;;;;;;;
2023/01/17 02:10:18;;;;;;;41.20;21.60;;;;;;;2.89;100.00;97520.20;216313;1300;138627;-89
2023/01/17 02:16:21;;;;;;;40.10;20.70;;;;;;;2.92;100.00;97507.06;216800;1299;104804;-86
2023/01/17 02:22:29;;;;;;;38.20;20.40;;;;;;;2.94;100.00;97502.77;216316;1299;138609;-86
2023/01/17 02:28:45;;;;;;;37.50;19.90;;;;;;;2.97;100.00;97500.67;216774;1299;104836;-88
2023/01/17 02:35:07;;;;;;;39.70;20.50;;;;;;;2.99;100.00;97495.06;216349;1299;139300;-85
2023/01/17 02:41:12;;;;;;;37.30;20.60;;;;;;;3.00;100.00;97473.19;216191;1299;139083;-89
2023/01/17 02:47:12;;;;;;;35.00;20.30;;;;;;;2.99;100.00;97446.95;216773;1299;104896;-91
2023/01/17 02:53:22;;;;;;;41.00;21.70;;;;;;;2.96;100.00;97446.98;216440;1299;138527;-86
2023/01/17 02:59:26;;;;;;;41.10;23.40;;;;;;;2.96;100.00;97461.49;217158;1299;105258;-91
2023/01/17 03:05:28;;;;;;;40.50;22.10;;;;;;;2.95;100.00;97462.26;216931;1299;106511;-86
2023/01/17 03:11:29;;;;;;;40.40;21.00;;;;;;;2.98;100.00;97464.80;216321;1299;139063;-90
2023/01/17 03:17:31;;;;;;;45.10;22.70;;;;;;;2.96;100.00;97451.31;216957;1299;104960;-88
2023/01/17 03:53:21;;;;;;;41.10;21.80;;;;;;;2.96;100.00;97437.44;217730;1297;105390;-88
2023/01/17 03:59:24;;;;;;;39.90;21.00;;;;;;;2.98;100.00;97438.89;217481;1298;105672;-92
2023/01/17 04:05:14;;;;;;;37.80;20.90;;;;;;;2.99;100.00;97446.03;217377;1295;138575;-88
2023/01/17 04:11:10;;;;;;;;;;;;;;;;;;;;;
2023/01/17 04:17:11;;;;;;;37.50;19.90;;;;;;;3.06;100.00;97443.17;217059;1300;106600;-90
2023/01/17 04:23:12;;;;;;;37.70;19.00;;;;;;;3.07;100.00;97434.25;216559;1301;140291;-90
2023/01/17 04:29:14;;;;;;;32.80;18.40;;;;;;;3.09;100.00;97428.96;217235;1299;105220;-91
2023/01/17 04:35:08;;;;;;;;;;;;;;;;;;;;;
2023/01/17 04:41:10;;;;;;;35.70;19.60;;;;;;;3.07;100.00;97419.73;216984;1296;138414;-88
2023/01/17 04:52:19;;;;;;;35.10;18.40;;;;;;;3.05;100.00;97418.04;216949;1295;138669;-87
2023/01/17 04:58:21;;;;;;;34.80;21.00;;;;;;;3.03;100.00;97427.05;217470;1295;107746;-88
2023/01/17 05:04:22;;;;;;;37.50;19.20;;;;;;;3.00;100.00;97430.19;216726;1295;138396;-88
2023/01/17 05:10:23;;;;;;;37.20;18.00;;;;;;;3.01;100.00;97426.99;216925;1296;138890;-85
2023/01/17 05:22:25;;;;;;;34.00;17.80;;;;;;;2.97;100.00;97438.13;216762;1295;138703;-89
2023/01/17 05:28:18;;;;;;;35.90;18.30;;;;;;;2.96;100.00;97435.80;217633;1298;107829;-89
2023/01/17 05:34:20;;;;;;;36.10;18.10;;;;;;;2.93;100.00;97438.16;216989;1293;138477;-90
2023/01/17 05:40:12;;;;;;;30.30;16.20;;;;;;;2.94;100.00;97443.34;216826;1297;138946;-90
2023/01/17 05:46:09;;;;;;;;;;;;;;;;;;;;;
2023/01/17 07:28:19;;;;;;;17.20;9.30;;;;;;;3.20;100.00;97510.22;217055;1296;95807;-88
2023/01/17 07:34:20;;;;;;;18.50;8.00;;;;;;;3.24;100.00;97510.66;216749;1295;138537;-87
2023/01/17 07:40:01;;;;;;;;;;;;;;;;;;;;;
2023/01/17 07:46:03;;;;;;;15.80;8.00;;;;;;;3.30;100.00;97524.98;217448;1295;96559;-90
2023/01/17 07:52:05;;;;;;;15.40;8.20;;;;;;;3.34;100.00;97526.58;216684;1296;138872;-91
2023/01/17 07:58:06;;;;;;;14.50;7.90;;;;;;;3.39;100.00;97525.54;217361;1295;96030;-89
2023/01/17 08:04:08;;;;;;;18.90;8.40;;;;;;;3.43;100.00;97527.67;217034;1296;138026;-90
2023/01/17 08:16:10;;;;;;;17.70;7.30;;;;;;;3.54;100.00;97542.98;217560;1295;95944;-86
2023/01/17 08:22:11;;;;;;;13.30;6.00;;;;;;;3.60;100.00;97550.07;216878;1296;138927;-85
2023/01/17 08:28:14;;;;;;;13.70;6.70;;;;;;;3.66;100.00;97556.09;217487;1296;96006;-90
2023/01/17 08:34:14;;;;;;;13.50;6.10;;;;;;;3.72;100.00;97565.28;216947;1295;138694;-90
2023/01/17 08:40:00;;;;;;;15.70;6.40;;;;;;;3.77;100.00;97563.14;216888;1296;138919;-91
2023/01/17 08:45:54;;;;;;;;;;;;;;;;;;;;;
2023/01/17 08:51:54;;;;;;;;;;;;;;;;;;;;;
2023/01/17 09:04:03;;;;;;;11.70;5.00;;;;;;;4.03;100.00;97597.05;217019;1295;138765;-87
2023/01/17 09:09:57;;;;;;;;;;;;;;;;;;;;;
2023/01/17 09:16:01;;;;;;;15.30;6.10;;;;;;;4.15;100.00;97616.31;217474;1295;110543;-88
2023/01/17 09:22:09;;;;;;;;;;;;;;;;;;;;;
2023/01/17 09:28:13;;;;;;;14.90;5.60;;;;;;;4.25;100.00;97638.60;217399;1296;111140;-89
2023/01/17 09:34:15;;;;;;;11.50;5.60;;;;;;;4.33;100.00;97640.63;217050;1296;138449;-90
2023/01/17 09:40:16;;;;;;;12.80;6.30;;;;;;;4.42;100.00;97645.99;216926;1296;138822;-89
2023/01/17 09:52:06;;;;;;;;;;;;;;;;;;;;;
2023/01/17 09:58:16;;;;;;;10.70;4.90;;;;;;;4.69;100.00;97646.27;217430;1296;112611;-87
2023/01/17 10:04:18;;;;;;;12.80;5.20;;;;;;;4.81;99.93;97645.52;216822;1296;138713;-90
2023/01/17 10:16:57;;;;;;;;;;;;;;;;;;;;;
2023/01/17 10:23:04;;;;;;;10.30;3.30;;;;;;;5.31;98.07;97649.35;216916;1296;138463;-88
2023/01/17 10:29:06;;;;;;;6.90;3.00;;;;;;;5.61;97.07;97651.91;217436;1296;110781;-88
2023/01/17 10:35:09;;;;;;;6.40;2.80;;;;;;;5.74;95.81;97657.50;217523;1296;111140;-85
2023/01/17 10:41:25;;;;;;;6.70;3.00;;;;;;;5.78;95.12;97666.72;216985;1295;138931;-91
2023/01/17 10:47:27;;;;;;;7.60;3.00;;;;;;;5.80;94.33;97671.79;217569;1296;111806;-91
2023/01/17 10:59:40;;;;;;;7.90;2.80;;;;;;;5.98;93.40;97669.73;216988;1296;139060;-96
2023/01/17 11:05:41;;;;;;;7.20;2.90;;;;;;;6.09;91.99;97667.45;217387;1296;110994;-87
2023/01/17 11:11:43;;;;;;;;;;;;;;;;;;;;;
2023/01/17 11:17:45;;;;;;;10.00;3.60;;;;;;;6.25;89.45;97679.75;216911;1296;112661;-87
2023/01/17 11:29:56;;;;;;;6.50;2.40;;;;;;;6.25;88.84;97686.71;216749;1296;139099;-88
2023/01/17 11:36:06;;;;;;;6.80;2.40;;;;;;;6.27;88.86;97683.48;216912;1296;111347;-88
2023/01/17 11:42:07;;;;;;;7.60;2.60;;;;;;;6.26;88.85;97676.08;216560;1297;139121;-89
2023/01/17 11:48:09;;;;;;;10.40;4.00;;;;;;;6.26;88.75;97672.17;217183;1297;104839;-90
2023/01/17 11:54:18;;;;;;;9.20;4.40;;;;;;;6.24;88.61;97670.65;216755;1296;139064;-91
2023/01/17 12:00:22;;;;;;;8.50;3.40;;;;;;;6.23;88.61;97673.77;216647;1296;139112;-86
2023/01/17 12:06:51;;;;;;;9.80;4.40;;;;;;;6.22;88.07;97679.02;217039;1296;104859;-88
2023/01/17 12:19:17;;;;;;;7.50;3.30;;;;;;;6.24;88.08;97684.46;217463;1296;104827;-90
2023/01/17 12:25:17;;;;;;;9.40;3.30;;;;;;;6.25;86.96;97691.09;217307;1296;105478;-89
2023/01/17 12:31:19;;;;;;;9.90;3.80;;;;;;;6.27;87.37;97697.37;216832;1296;139217;-90
2023/01/17 12:37:33;;;;;;;10.90;4.30;;;;;;;6.33;87.41;97699.53;217232;1296;105012;-83
2023/01/17 12:49:44;;;;;;;6.70;2.90;;;;;;;6.53;86.41;97694.21;217296;1296;107512;-86
2023/01/17 12:55:54;;;;;;;;;;;;;;;;;;;;;
2023/01/17 13:01:52;;;;;;;;;;;;;;;;;;;;;
2023/01/17 13:08:00;;;;;;;5.90;2.00;;;;;;;6.50;86.43;97711.42;217243;1296;109479;-86
2023/01/17 13:20:08;;;;;;;7.20;2.70;;;;;;;6.17;87.89;97729.48;216680;1296;138589;-90
2023/01/17 13:26:24;;;;;;;9.60;3.10;;;;;;;6.08;88.58;97736.58;217262;1296;107444;-87
2023/01/17 13:32:26;;;;;;;7.80;3.00;;;;;;;5.97;88.25;97748.50;216733;1296;139479;-87
2023/01/17 13:44:32;;;;;;;7.20;2.70;;;;;;;5.84;87.65;97761.33;216717;1296;139496;-90
2023/01/17 13:50:34;;;;;;;9.30;3.10;;;;;;;5.78;87.20;97774.33;216758;1296;137897;-90
2023/01/17 13:56:59;;;;;;;5.80;2.40;;;;;;;5.72;86.91;97790.21;217209;1296;107465;-85
2023/01/17 14:03:10;;;;;;;;;;;;;;;;;;;;;
2023/01/17 14:09:13;;;;;;;10.70;3.00;;;;;;;5.57;86.43;97807.00;217204;1296;106938;-88
2023/01/17 14:15:16;;;;;;;7.30;2.70;;;;;;;5.51;85.71;97807.59;217198;1296;138258;-87
2023/01/17 14:21:18;;;;;;;8.90;3.00;;;;;;;5.49;85.64;97825.00;216897;1296;138017;-88
2023/01/17 14:27:18;;;;;;;9.50;3.20;;;;;;;5.43;85.31;97837.38;217410;1296;108629;-86
2023/01/17 14:33:23;;;;;;;8.20;3.00;;;;;;;5.32;85.39;97844.50;216747;1297;138232;-88
2023/01/17 14:39:17;;;;;;;11.60;4.90;;;;;;;5.19;86.03;97858.47;217276;1296;107504;-92
2023/01/17 14:45:14;;;;;;;9.60;3.30;;;;;;;5.05;86.37;97867.56;217406;1296;243771;-86
2023/01/17 14:51:19;;;;;;;11.10;4.00;;;;;;;4.91;86.89;97874.91;216743;1296;139189;-90
2023/01/17 14:57:11;;;;;;;13.80;4.40;;;;;;;4.80;86.81;97882.46;217318;1296;97084;-89
2023/01/17 15:03:13;;;;;;;8.90;3.10;;;;;;;4.70;87.05;97891.64;216808;1296;139286;-90
2023/01/17 15:09:16;;;;;;;15.30;5.80;;;;;;;4.61;87.21;97895.96;217377;1296;96577;-88
2023/01/17 15:15:08;;;;;;;;;;;;;;;;;;;;;
2023/01/17 15:20:53;;;;;;;;;;;;;;;;;;;;;
2023/01/17 15:26:25;;;;;;;12.90;5.30;;;;;;;4.30;87.76;97936.36;217167;1297;96145;-85
2023/01/17 15:32:29;;;;;;;13.60;4.80;;;;;;;4.19;87.79;97938.20;216718;1297;138919;-85
2023/01/17 15:38:31;;;;;;;;;;;;;;;;;;;;;
2023/01/17 15:44:26;;;;;;;13.60;5.00;;;;;;;4.06;87.80;97965.84;216799;1296;138200;-82
2023/01/17 15:50:26;;;;;;;16.70;7.50;;;;;;;4.03;87.87;97975.88;216621;1296;138730;-87
2023/01/17 15:56:26;;;;;;;17.70;7.90;;;;;;;4.01;87.81;97990.27;217362;1296;96312;-90
2023/01/17 16:01:55;;;;;;;;;;;;;;;;;;;;;
2023/01/17 16:07:47;;;;;;;17.30;7.80;;;;;;;3.97;88.55;98002.41;217297;1301;96750;-90
2023/01/17 16:13:49;;;;;;;18.20;8.60;;;;;;;3.92;88.98;98012.67;216839;1296;138177;-90
2023/01/17 16:19:49;;;;;;;;;;;;;;;;;;;;;
2023/01/17 16:25:47;;;;;;;32.80;15.40;;;;;;;3.74;89.46;98021.23;217456;1296;112419;-89
2023/01/17 16:31:39;;;;;;;28.10;13.50;;;;;;;3.66;89.84;98026.45;216883;1297;138971;-89
2023/01/17 16:37:30;;;;;;;27.10;14.20;;;;;;;3.59;90.23;98028.38;217252;1297;111064;-90
2023/01/17 16:43:13;;;;;;;30.70;13.60;;;;;;;3.53;90.40;98028.16;216824;1296;138720;-88
2023/01/17 16:49:15;;;;;;;28.70;12.40;;;;;;;3.48;90.66;98031.51;217282;1297;112380;-88
2023/01/17 16:55:10;;;;;;;;;;;;;;;;;;;;;
2023/01/17 17:00:35;;;;;;;39.30;15.50;;;;;;;3.35;90.95;98041.98;216813;1297;138893;-89
2023/01/17 17:06:30;;;;;;;32.40;15.50;;;;;;;3.25;91.14;98033.89;217278;1297;112595;-90
2023/01/17 17:12:09;;;;;;;31.20;15.60;;;;;;;3.20;91.41;98036.44;216684;1301;138510;-90
2023/01/17 17:18:00;;;;;;;31.20;13.70;;;;;;;3.12;91.51;98035.73;217213;1297;111069;-89
2023/01/17 17:24:00;;;;;;;;;;;;;;;;;;;;;
2023/01/17 17:30:02;;;;;;;30.90;14.10;;;;;;;2.88;92.11;98040.09;216494;1297;138946;-89
2023/01/17 17:42:10;;;;;;;39.60;20.40;;;;;;;2.63;92.27;98043.73;216676;1298;138513;-88
2023/01/17 17:48:09;;;;;;;;;;;;;;;;;;;;;
2023/01/17 18:00:03;;;;;;;44.10;23.40;;;;;;;2.26;93.90;98070.30;216647;1298;138990;-90
2023/01/17 18:06:04;;;;;;;52.20;24.90;;;;;;;2.14;94.50;98080.14;216675;1297;111119;-90
2023/01/17 18:12:13;;;;;;;65.30;31.10;;;;;;;2.04;94.99;98075.73;216685;1297;139461;-88
2023/01/17 18:18:20;;;;;;;59.50;27.30;;;;;;;1.92;95.08;98070.16;213136;1296;5418228;-89
2023/01/17 18:24:30;;;;;;;69.10;32.00;;;;;;;1.83;95.54;98071.55;216753;1296;138790;-88
2023/01/17 18:30:37;;;;;;;64.70;30.60;;;;;;;1.71;95.91;98071.02;216680;1300;138841;-90
2023/01/17 18:36:27;;;;;;;;;;;;;;;;;;;;;
2023/01/17 18:41:59;;;;;;;70.60;33.70;;;;;;;1.46;96.43;98086.91;216728;1297;139033;-89
2023/01/17 18:47:38;;;;;;;;;;;;;;;;;;;;;
2023/01/17 18:53:36;;;;;;;;;;;;;;;;;;;;;
2023/01/17 18:59:32;;;;;;;;;;;;;;;;;;;;;
2023/01/17 19:05:20;;;;;;;;;;;;;;;;;;;;;
2023/01/17 19:10:54;;;;;;;69.50;34.30;;;;;;;0.83;97.48;98138.60;216512;1296;138546;-89
2023/01/17 19:16:56;;;;;;;66.00;35.40;;;;;;;0.72;97.65;98147.13;216998;1296;104031;-87
2023/01/17 19:22:08;;;;;;;;;;;;;;;;;;;;;
2023/01/17 19:28:01;;;;;;;;;;;;;;;;;;;;;
2023/01/17 19:34:05;;;;;;;61.70;34.20;;;;;;;0.40;97.90;98157.20;216568;1296;138374;-88
2023/01/17 19:46:31;;;;;;;67.90;35.40;;;;;;;0.19;98.53;98158.36;217118;1296;106440;-88
2023/01/17 19:52:07;;;;;;;69.80;35.70;;;;;;;0.08;98.95;98155.34;216690;1296;139191;-88
2023/01/17 19:57:51;;;;;;;67.20;33.30;;;;;;;0.00;99.29;98153.27;217078;1296;104796;-88
2023/01/17 20:03:36;;;;;;;78.10;37.60;;;;;;;-0.07;99.26;98150.83;216757;1295;138875;-86
2023/01/17 20:09:30;;;;;;;;;;;;;;;;;;;;;
2023/01/17 20:15:39;;;;;;;97.00;45.80;;;;;;;-0.25;99.56;98143.52;217917;1295;106639;-92
2023/01/17 21:30:39;;;;;;;72.90;34.60;;;;;;;-0.76;100.00;98216.81;216879;1298;138894;-90
2023/01/17 21:36:25;;;;;;;;;;;;;;;;;;;;;
2023/01/17 21:42:36;;;;;;;76.00;37.30;;;;;;;-0.82;100.00;98235.14;216791;1299;139006;-92
2023/01/17 21:48:29;;;;;;;78.10;35.90;;;;;;;-0.84;100.00;98243.02;217328;1299;103939;-90
2023/01/17 21:54:20;;;;;;;;;;;;;;;;;;;;;
2023/01/17 22:00:07;;;;;;;62.60;29.20;;;;;;;-0.91;100.00;98280.39;216555;1299;139531;-90
2023/01/17 22:17:23;;;;;;;83.30;40.90;;;;;;;-1.03;100.00;98289.14;217029;1299;104725;-90
2023/01/17 22:23:25;;;;;;;83.20;41.20;;;;;;;-1.06;100.00;98281.19;216575;1298;140232;-90
2023/01/17 22:29:26;;;;;;;116.80;55.30;;;;;;;-1.10;100.00;98266.84;217028;1299;105735;-90
2023/01/17 22:35:20;;;;;;;77.00;41.50;;;;;;;-1.13;100.00;98257.68;216880;1299;244434;-89
2023/01/17 22:41:19;;;;;;;;;;;;;;;;;;;;;
2023/01/17 22:47:22;;;;;;;96.60;45.00;;;;;;;-1.23;100.00;98225.23;216693;1299;108586;-85
2023/01/17 22:53:15;;;;;;;92.80;44.90;;;;;;;-1.25;100.00;98196.52;216234;1299;138976;-85
2023/01/17 22:59:17;;;;;;;72.90;34.80;;;;;;;-1.27;100.00;98200.48;216858;1299;107931;-87
2023/01/17 23:05:19;;;;;;;57.80;27.40;;;;;;;-1.30;100.00;98214.14;216503;1299;139149;-86
2023/01/17 23:23:18;;;;;;;86.40;41.10;;;;;;;-1.41;100.00;98207.34;216374;1299;139549;-86
2023/01/17 23:35:10;;;;;;;;;;;;;;;;;;;;;
2023/01/17 23:40:32;;;;;;;88.80;41.50;;;;;;;-1.53;100.00;98198.20;216479;1299;139294;-86
2023/01/17 23:46:34;;;;;;;81.40;35.80;;;;;;;-1.55;100.00;98187.45;216964;1298;96803;-86
2023/01/17 23:52:35;;;;;;;76.50;34.80;;;;;;;-1.53;100.00;98184.11;216334;1299;139450;-86
2023/01/17 23:58:28;;;;;;;;;;;;;;;;;;;;;
